Time;durP1;ratioP1;P1;durP2;ratioP2;P2;SDS_P1;SDS_P2;PMS_P1;PMS_P2;Temp;Humidity;BMP_temperature;BMP_pressure;BME280_temperature;BME280_humidity;BME280_pressure;Samples;Min_cycle;Max_cycle;Signal;HPM_P1;HPM_P2
2021/06/26 00:01:41;;;;;;;11.82;10.77;;;;;;;17.24;71.54;100631.06;4788458;30;20434;-91
2021/06/26 00:04:06;;;;;;;11.60;10.47;;;;;;;17.24;71.50;100630.25;4788669;30;20474;-91
2021/06/26 00:06:33;;;;;;;13.13;11.73;;;;;;;17.22;71.74;100622.31;4772520;30;20413;-92
2021/06/26 00:09:00;;;;;;;12.02;10.90;;;;;;;17.19;71.73;100624.81;4788330;30;20934;-91
2021/06/26 00:11:25;;;;;;;11.52;10.30;;;;;;;17.19;71.73;100627.56;4787221;30;20424;-91
2021/06/26 00:13:50;;;;;;;11.63;10.52;;;;;;;17.15;71.61;100621.00;4787133;30;20413;-91
2021/06/26 00:16:16;;;;;;;12.30;11.20;;;;;;;17.12;71.88;100617.69;4772506;30;20488;-91
2021/06/26 00:18:41;;;;;;;12.87;10.97;;;;;;;17.13;72.00;100621.28;4772059;30;20465;-91
2021/06/26 00:21:06;;;;;;;12.90;10.57;;;;;;;17.15;71.81;100621.81;4787295;30;20420;-91
2021/06/26 00:23:32;;;;;;;13.03;11.83;;;;;;;17.08;72.14;100615.84;4787083;30;20409;-91
2021/06/26 00:25:57;;;;;;;13.18;11.75;;;;;;;17.09;72.39;100625.69;4772192;30;20504;-91
2021/06/26 00:28:23;;;;;;;14.20;11.93;;;;;;;17.08;72.24;100616.66;4771627;30;20414;-91
2021/06/26 00:30:48;;;;;;;12.40;11.23;;;;;;;17.07;72.43;100623.22;4801617;29;20428;-91
2021/06/26 00:33:13;;;;;;;13.53;11.47;;;;;;;17.08;72.32;100619.41;4797123;29;20444;-90
2021/06/26 00:35:38;;;;;;;12.10;10.93;;;;;;;17.09;72.38;100621.00;4789742;29;20424;-93
2021/06/26 00:38:04;;;;;;;11.65;10.20;;;;;;;17.09;71.92;100618.28;4805603;29;20439;-93
2021/06/26 00:40:29;;;;;;;12.37;9.20;;;;;;;17.03;71.63;100619.41;4789857;29;20434;-91
2021/06/26 00:42:54;;;;;;;13.77;9.90;;;;;;;17.00;71.56;100619.16;4804710;29;20444;-91
2021/06/26 00:45:20;;;;;;;14.27;9.47;;;;;;;16.97;71.20;100619.72;4819836;29;20412;-91
2021/06/26 00:47:46;;;;;;;12.97;9.50;;;;;;;16.93;71.26;100618.66;4804680;29;20923;-92
2021/06/26 00:50:17;;;;;;;11.15;9.85;;;;;;;16.86;71.61;100610.75;4821469;29;20423;-91
2021/06/26 00:52:43;;;;;;;11.60;8.75;;;;;;;16.83;71.62;100616.78;4789243;29;20463;-91
2021/06/26 00:55:10;;;;;;;13.50;9.38;;;;;;;16.85;71.51;100622.00;4801502;29;20449;-91
2021/06/26 00:57:35;;;;;;;11.87;9.43;;;;;;;16.84;71.84;100621.19;4786919;30;20417;-90
2021/06/26 01:00:05;;;;;;;13.43;9.60;;;;;;;16.82;71.68;100615.19;4803321;29;21077;-90
2021/06/26 01:02:31;;;;;;;12.45;10.27;;;;;;;16.84;71.98;100615.69;4820119;29;20415;-91
2021/06/26 01:04:56;;;;;;;12.80;11.50;;;;;;;16.85;72.46;100622.81;4789662;29;20914;-89
2021/06/26 01:07:21;;;;;;;12.02;10.95;;;;;;;16.87;72.63;100636.22;4789837;29;20447;-90
2021/06/26 01:09:46;;;;;;;13.53;9.83;;;;;;;16.87;72.42;100631.56;4789512;29;20440;-90
2021/06/26 01:12:12;;;;;;;12.27;9.63;;;;;;;16.83;72.38;100627.75;4791492;29;20415;-90
2021/06/26 01:14:37;;;;;;;13.73;10.67;;;;;;;16.80;72.36;100619.28;4836394;29;20482;-91
2021/06/26 01:17:05;;;;;;;10.90;9.83;;;;;;;16.78;72.23;100621.47;4819812;29;20458;-91
2021/06/26 01:19:31;;;;;;;11.95;10.00;;;;;;;16.74;72.18;100620.41;4804468;29;20436;-91
2021/06/26 01:21:58;;;;;;;12.87;10.27;;;;;;;16.64;72.29;100618.53;4819367;29;20415;-90
2021/06/26 01:24:24;;;;;;;15.10;10.60;;;;;;;16.58;72.54;100622.41;4819896;29;20430;-90
2021/06/26 01:26:56;;;;;;;14.20;10.60;;;;;;;16.55;72.83;100620.22;4819616;29;20503;-90
2021/06/26 01:29:21;;;;;;;10.95;9.77;;;;;;;16.51;73.00;100617.19;4805476;29;20415;-90
2021/06/26 01:31:46;;;;;;;12.57;9.90;;;;;;;16.50;72.84;100621.03;4801264;29;20874;-91
2021/06/26 01:34:12;;;;;;;13.67;10.47;;;;;;;16.49;72.99;100616.69;4801147;29;20459;-91
2021/06/26 01:36:37;;;;;;;14.88;9.70;;;;;;;16.47;72.59;100616.13;4786507;29;20484;-91
2021/06/26 01:39:03;;;;;;;10.90;9.90;;;;;;;16.45;72.79;100610.13;4783244;30;20504;-90
2021/06/26 01:41:32;;;;;;;11.88;9.63;;;;;;;16.46;72.51;100619.97;4758565;30;20455;-91
2021/06/26 01:43:57;;;;;;;12.80;9.73;;;;;;;16.49;72.99;100613.13;4771677;30;20777;-91
2021/06/26 01:46:22;;;;;;;11.93;9.80;;;;;;;16.49;73.11;100611.22;4771238;30;20413;-91
2021/06/26 01:48:48;;;;;;;11.57;9.85;;;;;;;16.47;73.19;100616.13;4771051;30;20515;-91
2021/06/26 01:51:13;;;;;;;13.73;9.30;;;;;;;16.49;73.11;100611.22;4771119;30;20418;-90
2021/06/26 01:53:38;;;;;;;10.53;8.27;;;;;;;16.46;72.76;100613.69;4771007;30;20838;-91
2021/06/26 01:56:04;;;;;;;19.40;8.63;;;;;;;16.44;72.67;100610.38;4786062;30;20466;-90
2021/06/26 01:58:30;;;;;;;14.93;9.70;;;;;;;16.41;72.49;100606.31;4785576;30;20518;-91
2021/06/26 02:00:55;;;;;;;22.50;9.60;;;;;;;16.35;72.39;100596.47;4801061;29;20493;-90
2021/06/26 02:03:20;;;;;;;11.43;8.73;;;;;;;16.35;72.41;100601.94;4800507;29;20428;-90
2021/06/26 02:05:46;;;;;;;13.90;9.37;;;;;;;16.36;72.47;100600.88;4788707;29;20420;-91
2021/06/26 02:08:11;;;;;;;19.67;8.93;;;;;;;16.29;72.52;100597.59;4804568;29;20429;-90
2021/06/26 02:10:36;;;;;;;19.80;8.57;;;;;;;16.27;72.32;100597.03;4804489;29;20824;-91
2021/06/26 02:13:02;;;;;;;24.30;9.27;;;;;;;16.27;71.96;100599.00;4797152;29;20411;-91
2021/06/26 02:15:27;;;;;;;21.60;7.73;;;;;;;16.17;71.52;100594.34;4789640;29;20785;-91
2021/06/26 02:17:53;;;;;;;19.27;8.77;;;;;;;16.08;71.61;100587.81;4774428;30;20928;-91
2021/06/26 02:20:18;;;;;;;20.10;9.10;;;;;;;16.00;71.81;100596.59;4774672;30;20837;-91
2021/06/26 02:22:45;;;;;;;20.23;8.13;;;;;;;15.91;71.77;100596.34;4774589;30;20788;-92
2021/06/26 02:25:11;;;;;;;14.88;7.10;;;;;;;15.87;72.20;100597.97;4774493;30;20428;-91
2021/06/26 02:27:36;;;;;;;17.73;8.70;;;;;;;15.90;71.96;100594.72;4772046;30;20870;-92
2021/06/26 02:30:05;;;;;;;18.53;9.27;;;;;;;15.89;72.16;100589.50;4796297;29;20524;-91
2021/06/26 02:32:30;;;;;;;17.33;8.32;;;;;;;15.86;72.03;100587.34;4809322;29;20431;-91
2021/06/26 02:34:55;;;;;;;19.17;8.50;;;;;;;15.83;72.44;100591.44;4792324;29;20445;-92
2021/06/26 02:37:21;;;;;;;24.15;9.80;;;;;;;15.83;72.46;100591.44;4801523;29;20779;-91
2021/06/26 02:39:47;;;;;;;18.38;8.25;;;;;;;15.83;72.61;100582.44;4793428;29;20431;-91
2021/06/26 02:42:12;;;;;;;15.87;8.23;;;;;;;15.82;72.37;100583.50;4795416;29;20947;-90
2021/06/26 02:44:37;;;;;;;14.07;8.87;;;;;;;15.82;72.21;100587.06;4804169;29;20455;-90
2021/06/26 02:47:03;;;;;;;18.43;9.27;;;;;;;15.77;72.23;100587.09;4804061;29;20429;-89
2021/06/26 02:49:29;;;;;;;14.73;8.00;;;;;;;15.75;72.10;100585.72;4796591;29;20431;-92
2021/06/26 02:51:54;;;;;;;13.90;8.43;;;;;;;15.72;71.84;100586.25;4771507;29;20435;-92
2021/06/26 02:54:19;;;;;;;17.30;8.52;;;;;;;15.69;71.89;100597.75;4771042;30;20443;-92
2021/06/26 02:56:45;;;;;;;11.20;7.83;;;;;;;15.70;71.82;100604.84;4778772;29;20434;-91
2021/06/26 02:59:10;;;;;;;16.07;8.90;;;;;;;15.67;71.99;100595.31;4792024;29;20431;-92
2021/06/26 03:01:35;;;;;;;13.80;8.67;;;;;;;15.70;71.42;100589.28;4808282;29;20411;-91
2021/06/26 03:04:01;;;;;;;14.37;7.83;;;;;;;15.72;71.28;100592.53;4822023;29;20757;-92
2021/06/26 03:06:26;;;;;;;14.27;7.68;;;;;;;15.73;71.31;100591.47;4790569;29;20408;-91
2021/06/26 03:08:51;;;;;;;11.90;7.27;;;;;;;15.79;71.01;100595.81;4805519;29;20444;-91
2021/06/26 03:11:17;;;;;;;12.73;7.23;;;;;;;15.83;70.99;100596.91;4803645;29;20417;-91
2021/06/26 03:13:42;;;;;;;15.70;7.60;;;;;;;15.85;70.72;100597.44;4803327;29;20550;-92
2021/06/26 03:16:07;;;;;;;15.63;7.87;;;;;;;16.00;70.53;100591.94;4772032;30;20436;-90
2021/06/26 03:18:33;;;;;;;11.13;7.47;;;;;;;15.87;71.17;100595.25;4803512;29;20516;-91
2021/06/26 03:20:58;;;;;;;9.90;8.17;;;;;;;15.89;71.42;100584.88;4803393;29;20863;-90
2021/06/26 03:23:24;;;;;;;10.32;7.50;;;;;;;15.92;71.97;100595.25;4772988;30;20432;-91
2021/06/26 03:25:49;;;;;;;12.67;7.10;;;;;;;15.97;71.40;100589.75;4773205;30;20425;-90
2021/06/26 03:28:15;;;;;;;13.13;8.02;;;;;;;15.99;71.37;100578.56;4773056;30;20516;-90
2021/06/26 03:30:40;;;;;;;9.97;7.30;;;;;;;16.01;71.34;100571.72;4788353;30;20492;-91
2021/06/26 03:33:05;;;;;;;8.60;7.70;;;;;;;16.03;71.61;100577.72;4789087;29;20534;-91
2021/06/26 03:35:31;;;;;;;10.33;7.90;;;;;;;16.01;71.71;100579.09;4790866;29;20768;-90
2021/06/26 03:37:56;;;;;;;9.20;8.40;;;;;;;16.04;71.78;100584.81;4821293;29;20934;-90
2021/06/26 03:40:21;;;;;;;9.83;7.47;;;;;;;16.05;71.76;100578.25;4802791;29;20409;-90
2021/06/26 03:42:46;;;;;;;9.67;7.27;;;;;;;16.06;71.57;100579.91;4788801;29;20541;-91
2021/06/26 03:45:12;;;;;;;8.40;7.28;;;;;;;16.06;71.42;100585.38;4804842;29;20944;-91
2021/06/26 03:47:37;;;;;;;8.63;7.70;;;;;;;16.06;71.01;100587.28;4810063;29;20431;-90
2021/06/26 03:50:07;;;;;;;9.48;7.40;;;;;;;16.04;71.32;100586.72;4805562;29;20438;-91
2021/06/26 03:52:33;;;;;;;8.73;6.72;;;;;;;16.06;71.45;100584.56;4821014;29;20804;-91
2021/06/26 03:54:58;;;;;;;10.67;7.70;;;;;;;16.09;71.62;100586.72;4790815;29;20504;-91
2021/06/26 03:57:23;;;;;;;8.52;7.53;;;;;;;16.07;71.53;100595.19;4790394;29;20432;-91
2021/06/26 03:59:49;;;;;;;15.77;7.13;;;;;;;16.06;71.47;100593.56;4806980;29;20819;-90
2021/06/26 04:02:14;;;;;;;13.63;7.67;;;;;;;16.01;71.11;100600.94;4790766;29;20502;-90
2021/06/26 04:04:39;;;;;;;10.87;6.97;;;;;;;15.94;71.58;100603.97;4790621;29;20411;-90
2021/06/26 04:07:05;;;;;;;10.57;6.93;;;;;;;15.91;71.60;100599.06;4820467;29;20438;-92
2021/06/26 04:09:30;;;;;;;10.53;7.67;;;;;;;15.92;71.61;100613.56;4806425;29;20441;-91
2021/06/26 04:11:56;;;;;;;13.97;6.93;;;;;;;15.94;71.39;100609.44;4820875;29;20419;-92
2021/06/26 04:14:22;;;;;;;8.90;6.55;;;;;;;15.93;71.49;100598.81;4790728;29;20904;-90
2021/06/26 04:16:47;;;;;;;7.38;6.53;;;;;;;15.94;71.59;100598.50;4810350;29;20448;-91
2021/06/26 04:19:15;;;;;;;8.07;6.90;;;;;;;15.87;71.92;100597.97;4799941;29;20461;-91
2021/06/26 04:21:41;;;;;;;25.98;23.33;;;;;;;15.75;72.42;100588.44;4802727;29;20434;-90
2021/06/26 04:24:07;;;;;;;31.00;27.30;;;;;;;15.79;72.91;100592.25;4819686;29;20435;-91
2021/06/26 04:26:32;;;;;;;23.80;17.43;;;;;;;15.85;72.55;100591.16;4789831;29;20464;-92
2021/06/26 04:28:58;;;;;;;14.52;12.15;;;;;;;15.88;72.98;100593.34;4789360;29;20524;-91
2021/06/26 04:31:23;;;;;;;12.43;11.20;;;;;;;15.96;72.87;100598.25;4762854;29;20500;-91
2021/06/26 04:33:48;;;;;;;10.70;9.20;;;;;;;16.02;72.70;100592.50;4783662;29;20534;-91
2021/06/26 04:36:14;;;;;;;11.40;8.50;;;;;;;16.10;72.55;100602.84;4786533;29;20459;-91
2021/06/26 04:38:41;;;;;;;13.18;9.13;;;;;;;16.15;72.93;100595.72;4786349;29;20447;-91
2021/06/26 04:41:06;;;;;;;8.95;7.88;;;;;;;16.18;72.99;100592.44;4800761;29;20443;-91
2021/06/26 04:43:32;;;;;;;9.77;7.97;;;;;;;16.28;72.73;100595.97;4786635;30;20414;-90
2021/06/26 04:45:57;;;;;;;10.30;7.70;;;;;;;16.32;72.38;100586.09;4786764;29;20492;-91
2021/06/26 04:48:25;;;;;;;10.77;7.75;;;;;;;16.36;72.37;100594.56;4783299;29;20497;-92
2021/06/26 04:50:50;;;;;;;8.60;7.67;;;;;;;16.45;71.89;100601.09;4768407;30;20422;-91
2021/06/26 04:53:16;;;;;;;9.53;8.50;;;;;;;16.55;71.81;100592.88;4771398;30;22192;-90
2021/06/26 04:55:41;;;;;;;13.85;8.73;;;;;;;16.72;71.79;100604.28;4796184;29;20419;-91
2021/06/26 04:58:06;;;;;;;10.43;9.03;;;;;;;16.76;71.60;100602.59;4804430;29;20424;-90
2021/06/26 05:00:32;;;;;;;10.50;8.47;;;;;;;16.80;71.33;100597.38;4804673;29;20403;-93
2021/06/26 05:02:57;;;;;;;10.60;8.77;;;;;;;16.85;71.31;100592.72;4804369;29;20542;-90
2021/06/26 05:05:22;;;;;;;10.77;9.00;;;;;;;16.84;71.51;100592.97;4801246;29;20511;-93
2021/06/26 05:07:48;;;;;;;11.30;9.43;;;;;;;16.88;71.89;100600.34;4801369;29;20889;-91
2021/06/26 05:10:14;;;;;;;10.45;9.65;;;;;;;17.07;71.45;100605.97;4801376;29;20874;-92
2021/06/26 05:12:43;;;;;;;12.88;10.38;;;;;;;17.21;71.43;100598.78;4806591;29;20418;-91
2021/06/26 05:15:09;;;;;;;14.73;10.93;;;;;;;17.37;71.11;100599.47;4784862;29;20816;-91
2021/06/26 05:17:35;;;;;;;11.90;10.77;;;;;;;17.46;71.40;100595.81;4774973;30;20494;-91
2021/06/26 05:20:00;;;;;;;11.47;10.37;;;;;;;17.64;70.82;100599.81;4781247;30;20523;-91
2021/06/26 05:22:25;;;;;;;10.90;9.73;;;;;;;17.85;70.48;100598.50;4785667;30;20433;-90
2021/06/26 05:24:51;;;;;;;10.43;9.53;;;;;;;18.06;70.41;100601.84;4787121;29;20425;-91
2021/06/26 05:27:16;;;;;;;13.83;9.83;;;;;;;18.18;69.68;100607.75;4786905;29;20445;-91
2021/06/26 05:29:43;;;;;;;12.10;9.77;;;;;;;18.35;69.17;100605.34;4787125;30;20492;-91
2021/06/26 05:32:09;;;;;;;11.60;10.40;;;;;;;18.45;69.48;100613.47;4787147;29;20444;-91
2021/06/26 05:34:35;;;;;;;11.50;10.33;;;;;;;18.45;70.06;100621.69;4787698;30;20405;-90
2021/06/26 05:37:01;;;;;;;11.35;10.35;;;;;;;18.51;70.01;100615.06;4772149;30;20913;-91
2021/06/26 05:39:26;;;;;;;14.20;11.00;;;;;;;18.53;70.04;100618.34;4771107;30;20433;-90
2021/06/26 05:41:51;;;;;;;11.13;10.13;;;;;;;18.52;70.27;100622.19;4771139;30;20968;-90
2021/06/26 05:44:18;;;;;;;11.43;9.67;;;;;;;18.60;70.44;100613.31;4782540;30;20422;-91
2021/06/26 05:46:43;;;;;;;15.50;10.80;;;;;;;18.71;70.02;100610.41;4768664;30;20922;-91
2021/06/26 05:49:08;;;;;;;11.63;9.40;;;;;;;18.76;69.81;100607.63;4768133;30;20414;-91
2021/06/26 05:51:34;;;;;;;9.83;9.03;;;;;;;18.75;69.65;100611.47;4790947;29;21001;-90
2021/06/26 05:53:59;;;;;;;9.97;8.97;;;;;;;18.79;69.62;100612.53;4770740;30;21092;-91
2021/06/26 05:56:24;;;;;;;9.45;8.65;;;;;;;18.89;68.81;100617.88;4800989;29;20515;-89
2021/06/26 05:58:49;;;;;;;9.93;8.33;;;;;;;18.96;69.02;100613.66;4774317;29;20435;-89
2021/06/26 06:01:15;;;;;;;9.27;8.13;;;;;;;19.02;68.26;100609.72;4766590;29;20495;-90
2021/06/26 06:03:40;;;;;;;8.30;7.57;;;;;;;19.13;68.23;100613.13;4792408;29;20435;-90
2021/06/26 06:06:06;;;;;;;8.23;7.43;;;;;;;19.17;67.62;100611.41;4792042;29;20800;-89
2021/06/26 06:08:32;;;;;;;7.75;7.05;;;;;;;19.17;67.25;100612.22;4805431;29;20443;-88
2021/06/26 06:10:58;;;;;;;7.93;7.27;;;;;;;19.20;66.72;100613.53;4771417;30;20424;-89
2021/06/26 06:13:23;;;;;;;9.98;7.25;;;;;;;19.26;66.44;100608.81;4786699;29;20429;-92
2021/06/26 06:15:50;;;;;;;8.30;6.90;;;;;;;19.38;66.90;100609.97;4787959;29;20427;-90
2021/06/26 06:18:17;;;;;;;10.25;7.63;;;;;;;19.45;67.21;100615.13;4788040;29;20438;-89
2021/06/26 06:20:42;;;;;;;8.45;7.65;;;;;;;19.50;67.24;100621.34;4789737;29;20421;-91
2021/06/26 06:23:08;;;;;;;8.32;7.63;;;;;;;19.55;67.35;100620.47;4785727;29;20522;-89
2021/06/26 06:25:34;;;;;;;9.25;7.40;;;;;;;19.64;67.79;100615.91;4784848;29;20409;-90
2021/06/26 06:28:04;;;;;;;8.25;7.47;;;;;;;19.72;67.40;100615.22;4794411;29;20429;-91
2021/06/26 06:30:31;;;;;;;9.13;7.80;;;;;;;19.78;66.73;100621.44;4780694;30;20424;-90
2021/06/26 06:32:58;;;;;;;8.67;7.43;;;;;;;19.81;66.45;100627.16;4784327;29;20802;-90
2021/06/26 06:35:24;;;;;;;10.60;7.72;;;;;;;19.87;66.19;100619.63;4785470;30;20785;-92
2021/06/26 06:37:50;;;;;;;8.10;7.32;;;;;;;19.90;66.12;100624.50;4785429;29;20425;-91
2021/06/26 06:40:15;;;;;;;7.53;6.85;;;;;;;20.01;65.70;100620.47;4787419;29;20438;-90
2021/06/26 06:42:41;;;;;;;8.67;6.67;;;;;;;20.01;64.39;100614.97;4785968;29;20962;-91
2021/06/26 06:45:07;;;;;;;7.33;6.30;;;;;;;19.88;63.53;100630.34;4786461;30;20436;-91
2021/06/26 06:47:33;;;;;;;7.20;6.30;;;;;;;19.89;62.90;100620.16;4802406;29;20490;-90
2021/06/26 06:49:58;;;;;;;6.63;5.97;;;;;;;19.93;63.21;100615.66;4785520;30;20797;-91
2021/06/26 06:52:24;;;;;;;6.43;5.93;;;;;;;19.95;63.14;100617.00;4800935;29;20480;-91
2021/06/26 06:54:49;;;;;;;6.05;5.68;;;;;;;19.95;62.61;100622.50;4788743;30;20424;-90
2021/06/26 06:57:15;;;;;;;6.87;6.27;;;;;;;19.98;62.59;100621.06;4805462;29;20424;-92
2021/06/26 06:59:40;;;;;;;6.13;5.53;;;;;;;19.91;61.81;100620.66;4796731;29;20497;-90
2021/06/26 07:02:05;;;;;;;6.97;6.40;;;;;;;19.91;62.37;100631.66;4788554;29;20774;-91
2021/06/26 07:04:30;;;;;;;6.27;5.70;;;;;;;20.01;62.62;100628.72;4790740;30;20441;-91
2021/06/26 07:06:57;;;;;;;6.73;6.23;;;;;;;20.11;62.06;100625.78;4789492;30;20465;-92
2021/06/26 07:09:22;;;;;;;6.65;6.15;;;;;;;20.17;62.46;100630.06;4788782;30;20428;-90
2021/06/26 07:11:48;;;;;;;6.33;5.83;;;;;;;20.21;62.19;100633.84;4784324;30;20413;-88
2021/06/26 07:14:13;;;;;;;6.95;6.35;;;;;;;20.06;62.52;100636.88;4783326;29;20433;-88
2021/06/26 07:16:38;;;;;;;6.60;6.00;;;;;;;20.07;62.82;100636.56;4790070;29;20425;-90
2021/06/26 07:19:04;;;;;;;6.80;6.20;;;;;;;20.13;62.86;100638.09;4802178;29;20788;-90
2021/06/26 07:21:30;;;;;;;6.90;6.10;;;;;;;20.16;62.84;100643.00;4801570;29;20921;-90
2021/06/26 07:23:56;;;;;;;6.90;6.22;;;;;;;19.96;63.54;100639.81;4787454;29;20482;-90
2021/06/26 07:26:21;;;;;;;7.35;6.60;;;;;;;19.98;63.59;100632.91;4790204;29;21138;-91
2021/06/26 07:28:46;;;;;;;7.30;6.60;;;;;;;20.05;63.42;100627.81;4787854;30;20427;-90
2021/06/26 07:31:12;;;;;;;7.13;6.43;;;;;;;20.11;63.03;100628.53;4787038;30;20502;-90
2021/06/26 07:33:38;;;;;;;6.70;5.78;;;;;;;20.18;63.18;100627.03;4786412;30;20819;-92
2021/06/26 07:36:03;;;;;;;7.30;6.60;;;;;;;20.26;61.75;100630.16;4787443;29;20426;-89
2021/06/26 07:38:29;;;;;;;7.32;5.95;;;;;;;20.26;62.40;100627.41;4790250;29;20452;-91
2021/06/26 07:40:54;;;;;;;9.23;6.53;;;;;;;20.28;63.04;100622.47;4788154;30;20429;-91
2021/06/26 07:43:19;;;;;;;6.95;6.35;;;;;;;20.30;62.85;100620.22;4802125;29;20425;-91
2021/06/26 07:45:45;;;;;;;7.00;6.30;;;;;;;20.38;63.01;100625.84;4787172;29;20844;-90
2021/06/26 07:48:11;;;;;;;7.90;6.43;;;;;;;20.45;62.41;100625.44;4792706;29;20521;-89
2021/06/26 07:50:36;;;;;;;7.37;6.80;;;;;;;20.48;62.28;100622.06;4787545;29;20532;-90
2021/06/26 07:53:01;;;;;;;7.33;6.70;;;;;;;20.46;62.17;100622.34;4788051;29;20436;-89
2021/06/26 07:55:29;;;;;;;7.17;6.23;;;;;;;20.48;62.35;100625.59;4788586;30;20507;-91
2021/06/26 07:57:54;;;;;;;7.70;6.90;;;;;;;20.43;62.18;100616.66;4790766;29;20437;-90
2021/06/26 08:00:20;;;;;;;7.25;6.50;;;;;;;20.56;62.42;100618.56;4787606;30;20421;-90
2021/06/26 08:02:45;;;;;;;7.47;6.80;;;;;;;20.73;62.02;100613.25;4785557;29;20918;-90
2021/06/26 08:05:10;;;;;;;7.70;6.90;;;;;;;20.98;61.61;100614.63;4783941;29;20444;-90
2021/06/26 08:07:36;;;;;;;7.27;6.63;;;;;;;21.22;61.02;100609.69;4788010;29;20448;-90
2021/06/26 08:10:01;;;;;;;7.33;6.43;;;;;;;21.40;60.58;100611.47;4786732;30;20433;-90
2021/06/26 08:12:26;;;;;;;7.30;6.80;;;;;;;21.50;60.76;100604.88;4787943;29;20969;-90
2021/06/26 08:14:51;;;;;;;7.87;7.07;;;;;;;21.68;59.92;100595.59;4786385;29;20510;-89
2021/06/26 08:17:17;;;;;;;7.53;6.83;;;;;;;21.80;59.20;100604.09;4788802;29;20444;-90
2021/06/26 08:19:42;;;;;;;11.03;7.03;;;;;;;22.02;59.11;100597.75;4801489;29;20596;-90
2021/06/26 08:22:08;;;;;;;7.43;6.47;;;;;;;22.24;58.51;100587.47;4801528;29;20422;-91
2021/06/26 08:24:34;;;;;;;10.03;7.00;;;;;;;22.57;58.47;100589.81;4801693;29;20406;-90
2021/06/26 08:27:01;;;;;;;7.57;6.47;;;;;;;22.99;56.92;100586.34;4792086;29;20554;-91
2021/06/26 08:29:27;;;;;;;6.43;5.93;;;;;;;23.38;55.28;100584.56;4787501;29;20425;-94
2021/06/26 08:31:53;;;;;;;7.32;6.10;;;;;;;23.62;55.03;100590.38;4787784;30;20500;-90
2021/06/26 08:34:18;;;;;;;8.60;6.60;;;;;;;23.74;54.81;100585.78;4786336;30;20508;-90
2021/06/26 08:36:43;;;;;;;6.27;5.63;;;;;;;23.96;53.50;100584.78;4786650;29;20428;-88
2021/06/26 08:39:09;;;;;;;8.33;5.53;;;;;;;24.34;53.25;100589.50;4787741;30;20939;-96
2021/06/26 08:41:40;;;;;;;9.30;6.07;;;;;;;24.65;52.56;100587.22;4787962;29;20944;-90
2021/06/26 08:44:06;;;;;;;6.38;5.82;;;;;;;25.02;49.83;100583.59;4787913;29;20874;-90
2021/06/26 08:46:32;;;;;;;5.88;5.45;;;;;;;25.30;47.52;100586.59;4784768;29;20504;-88
2021/06/26 08:48:57;;;;;;;6.23;5.73;;;;;;;25.61;46.19;100581.44;4800900;29;20785;-87
2021/06/26 08:51:23;;;;;;;6.43;5.82;;;;;;;26.08;45.72;100581.06;4786503;29;20474;-89
2021/06/26 08:53:48;;;;;;;6.87;6.07;;;;;;;26.57;44.71;100574.41;4786392;29;20421;-90
2021/06/26 08:56:13;;;;;;;6.70;4.80;;;;;;;26.86;41.89;100578.88;4799232;29;20847;-90
2021/06/26 08:58:39;;;;;;;7.15;5.53;;;;;;;26.60;42.44;100568.13;4786644;30;20528;-90
2021/06/26 09:01:06;;;;;;;5.73;5.33;;;;;;;27.11;41.38;100560.13;4784463;30;21470;-91
2021/06/26 09:03:31;;;;;;;5.97;5.55;;;;;;;28.71;40.74;100577.16;4800232;29;20425;-91
2021/06/26 09:06:06;;;;;;;5.77;5.37;;;;;;;30.33;34.56;100576.81;4797325;29;20510;-90
2021/06/26 09:08:32;;;;;;;5.85;5.35;;;;;;;32.24;30.58;100573.66;4785908;30;20486;-90
2021/06/26 09:10:57;;;;;;;5.53;5.13;;;;;;;33.06;29.55;100578.63;4787045;30;20412;-90
2021/06/26 09:13:26;;;;;;;9.33;5.80;;;;;;;34.44;28.40;100575.34;4787082;29;20420;-89
2021/06/26 09:16:10;;;;;;;6.33;5.83;;;;;;;35.84;26.18;100579.72;4786297;29;20942;-87
2021/06/26 09:18:45;;;;;;;6.15;5.05;;;;;;;36.12;25.89;100583.56;4773038;30;20577;-88
2021/06/26 09:21:33;;;;;;;6.13;5.70;;;;;;;36.93;25.00;100580.78;4786589;29;20436;-87
2021/06/26 09:24:08;;;;;;;5.20;4.75;;;;;;;37.62;24.19;100578.72;4789267;29;20995;-88
2021/06/26 09:26:35;;;;;;;5.93;5.43;;;;;;;38.48;23.08;100576.97;4798860;29;20429;-88
2021/06/26 09:29:18;;;;;;;5.40;5.07;;;;;;;39.12;21.62;100587.91;4786513;29;20440;-87
2021/06/26 09:31:51;;;;;;;5.95;5.35;;;;;;;39.08;22.00;100578.69;4796858;29;20419;-88
2021/06/26 09:34:17;;;;;;;7.22;4.47;;;;;;;39.37;22.77;100582.53;4796414;29;20480;-88
2021/06/26 09:36:42;;;;;;;6.20;5.20;;;;;;;40.25;21.38;100579.69;4792551;29;20433;-88
2021/06/26 09:39:11;;;;;;;5.77;4.80;;;;;;;40.35;20.00;100567.25;4800171;29;20441;-88
2021/06/26 09:41:39;;;;;;;6.95;5.20;;;;;;;39.41;21.73;100577.59;4784747;29;20440;-88
2021/06/26 09:44:12;;;;;;;4.80;4.45;;;;;;;39.22;21.60;100563.41;4798315;29;20574;-89
2021/06/26 09:46:46;;;;;;;6.40;5.40;;;;;;;39.08;21.79;100564.50;4784249;29;20428;-88
2021/06/26 09:49:12;;;;;;;5.10;4.47;;;;;;;38.75;22.68;100566.38;4783008;29;20421;-89
2021/06/26 09:51:37;;;;;;;5.70;5.05;;;;;;;40.18;21.53;100571.34;4785853;29;20534;-90
2021/06/26 09:54:05;;;;;;;4.60;4.37;;;;;;;41.45;20.03;100571.94;4784581;29;20421;-89
2021/06/26 09:56:45;;;;;;;4.33;4.13;;;;;;;40.99;19.79;100578.97;4786432;29;20886;-88
2021/06/26 09:59:15;;;;;;;5.93;5.22;;;;;;;41.08;19.79;100571.38;4798197;29;20433;-90
2021/06/26 10:01:43;;;;;;;6.00;4.78;;;;;;;42.18;19.14;100565.91;4799774;29;20781;-91
2021/06/26 10:04:16;;;;;;;5.30;4.68;;;;;;;42.25;18.33;100573.44;4796258;29;20441;-90
2021/06/26 10:06:43;;;;;;;5.30;4.90;;;;;;;41.74;19.50;100570.59;4800109;29;20414;-91
2021/06/26 10:09:09;;;;;;;5.38;4.32;;;;;;;42.65;18.89;100577.31;4777919;29;20434;-90
2021/06/26 10:11:36;;;;;;;7.90;4.70;;;;;;;43.26;17.11;100584.47;4795808;29;20433;-89
2021/06/26 10:14:04;;;;;;;4.40;4.10;;;;;;;43.52;17.83;100583.06;4797657;29;20436;-90
2021/06/26 10:16:30;;;;;;;5.10;4.80;;;;;;;42.88;17.75;100562.63;4786478;29;20444;-88
2021/06/26 10:19:00;;;;;;;4.80;4.50;;;;;;;43.80;17.17;100566.88;4785939;29;20503;-90
2021/06/26 10:21:26;;;;;;;4.47;4.18;;;;;;;42.87;17.64;100566.75;4799892;29;20781;-90
2021/06/26 10:23:54;;;;;;;4.32;4.03;;;;;;;40.07;20.03;100562.28;4788963;29;20417;-92
2021/06/26 10:26:20;;;;;;;4.45;4.15;;;;;;;37.63;23.81;100549.25;4785433;29;20450;-90
2021/06/26 10:28:50;;;;;;;4.68;4.03;;;;;;;38.65;22.21;100549.56;4788532;29;20440;-91
2021/06/26 10:31:16;;;;;;;4.97;4.50;;;;;;;40.92;20.43;100540.16;4800050;29;20426;-91
2021/06/26 10:33:42;;;;;;;4.97;4.47;;;;;;;42.70;18.69;100542.53;4790189;29;20522;-92
2021/06/26 10:36:07;;;;;;;4.20;4.00;;;;;;;43.80;18.47;100547.66;4788486;30;20459;-92
2021/06/26 10:38:44;;;;;;;4.73;4.33;;;;;;;43.75;17.92;100551.13;4803373;29;20437;-92
2021/06/26 10:41:21;;;;;;;4.70;4.20;;;;;;;43.61;16.07;100543.13;4789670;29;20472;-92
2021/06/26 10:44:01;;;;;;;6.78;4.32;;;;;;;43.03;18.47;100539.31;4804268;29;20453;-92
2021/06/26 10:46:26;;;;;;;3.85;3.60;;;;;;;42.16;19.41;100537.06;4788807;30;20498;-95
2021/06/26 10:49:06;;;;;;;4.07;3.78;;;;;;;41.34;20.19;100533.19;4787722;30;20424;-92
2021/06/26 10:51:34;;;;;;;3.90;3.70;;;;;;;39.93;20.32;100532.22;4777221;29;20482;-91
2021/06/26 10:54:11;;;;;;;4.40;4.10;;;;;;;38.29;22.93;100521.09;4804891;29;20419;-91
2021/06/26 10:56:38;;;;;;;3.83;3.60;;;;;;;40.40;20.16;100523.31;4789371;29;20413;-92
2021/06/26 10:59:20;;;;;;;4.15;3.92;;;;;;;42.85;18.95;100531.38;4802721;29;20432;-92
2021/06/26 11:01:57;;;;;;;5.40;3.55;;;;;;;43.83;16.66;100534.53;4794084;29;21273;-91
2021/06/26 11:04:23;;;;;;;3.88;3.47;;;;;;;43.77;17.47;100527.81;4790573;29;20464;-89
2021/06/26 11:06:50;;;;;;;4.07;3.78;;;;;;;44.14;17.17;100531.56;4802536;29;20418;-89
2021/06/26 11:09:16;;;;;;;4.07;3.78;;;;;;;44.32;15.96;100521.00;4792077;29;20428;-91
2021/06/26 11:11:48;;;;;;;4.25;3.88;;;;;;;44.74;16.61;100523.25;4803112;29;20413;-91
2021/06/26 11:14:22;;;;;;;3.85;3.70;;;;;;;45.28;16.05;100526.03;4797979;29;20425;-89
2021/06/26 11:16:54;;;;;;;3.67;3.47;;;;;;;45.82;15.63;100518.50;4797820;29;20421;-84